Time;durP1;ratioP1;P1;durP2;ratioP2;P2;SDS_P1;SDS_P2;PMS_P1;PMS_P2;Temp;Humidity;BMP_temperature;BMP_pressure;BME280_temperature;BME280_humidity;BME280_pressure;Samples;Min_cycle;Max_cycle;Signal;HPM_P1;HPM_P2
2024/04/04 00:01:34;;;;;;;2.60;1.10;;;9.90;99.90;;;;;;4212428;28;20542;-58
2024/04/04 00:03:36;;;;;;;2.13;0.90;;;9.90;99.90;;;;;;4212574;28;20180;-58
2024/04/04 00:05:37;;;;;;;3.83;1.07;;;9.90;99.90;;;;;;4212587;28;20181;-58
2024/04/04 00:07:38;;;;;;;3.13;0.90;;;9.90;99.90;;;;;;4198704;28;20191;-58
2024/04/04 00:09:38;;;;;;;2.33;0.80;;;9.90;99.90;;;;;;4210453;28;20188;-58
2024/04/04 00:11:39;;;;;;;1.43;0.80;;;9.90;99.90;;;;;;4205149;28;20173;-58
2024/04/04 00:13:40;;;;;;;1.37;0.90;;;10.00;99.90;;;;;;4212429;28;20275;-58
2024/04/04 00:15:41;;;;;;;2.40;1.20;;;10.00;99.90;;;;;;4210659;28;20181;-58
2024/04/04 00:17:43;;;;;;;1.87;1.03;;;10.00;99.90;;;;;;4212196;28;20176;-58
2024/04/04 00:19:44;;;;;;;1.50;0.93;;;10.10;99.90;;;;;;4211532;28;20181;-58
2024/04/04 00:21:45;;;;;;;1.57;0.83;;;10.10;99.90;;;;;;4212057;28;20528;-58
2024/04/04 00:23:46;;;;;;;1.80;0.90;;;10.10;99.90;;;;;;4212047;28;20213;-58
2024/04/04 00:25:47;;;;;;;2.70;0.90;;;10.10;99.90;;;;;;4212212;28;20640;-58
2024/04/04 00:27:47;;;;;;;1.17;0.60;;;10.10;99.90;;;;;;4211921;28;20309;-58
2024/04/04 00:29:49;;;;;;;1.40;0.90;;;10.20;99.90;;;;;;4211011;28;20200;-58
2024/04/04 00:31:49;;;;;;;3.17;1.10;;;10.20;99.90;;;;;;4211731;28;20183;-58
2024/04/04 00:33:50;;;;;;;3.23;1.17;;;10.20;99.90;;;;;;4211868;28;20172;-58
2024/04/04 00:35:50;;;;;;;1.40;0.80;;;10.20;99.90;;;;;;4211472;28;20263;-58
2024/04/04 00:37:51;;;;;;;1.87;0.80;;;10.30;99.90;;;;;;4212024;28;20184;-58
2024/04/04 00:39:52;;;;;;;1.77;0.90;;;10.40;99.90;;;;;;4211242;28;20176;-58
2024/04/04 00:41:52;;;;;;;1.83;0.80;;;10.40;99.90;;;;;;4205600;28;20357;-58
2024/04/04 00:43:53;;;;;;;3.10;0.73;;;10.50;99.90;;;;;;4212001;28;20187;-58
2024/04/04 00:45:53;;;;;;;0.83;0.70;;;10.50;99.90;;;;;;4211711;28;20185;-58
2024/04/04 00:47:54;;;;;;;1.23;1.00;;;10.60;99.90;;;;;;4211689;28;20226;-58
2024/04/04 00:49:55;;;;;;;1.40;0.70;;;10.60;99.90;;;;;;4211371;28;20462;-58
2024/04/04 00:51:56;;;;;;;2.60;0.90;;;10.70;99.90;;;;;;4211483;28;20630;-58
2024/04/04 00:53:56;;;;;;;2.37;0.87;;;10.70;99.90;;;;;;4211772;28;20191;-58
2024/04/04 00:55:57;;;;;;;2.33;0.80;;;10.70;99.90;;;;;;4211756;28;20266;-58
2024/04/04 00:57:58;;;;;;;1.00;0.53;;;10.80;99.90;;;;;;4211738;28;20609;-58
2024/04/04 00:59:59;;;;;;;1.53;0.80;;;10.80;99.90;;;;;;4211072;28;20204;-58
2024/04/04 01:02:00;;;;;;;1.90;0.80;;;10.80;99.90;;;;;;4211817;28;20188;-58
2024/04/04 01:04:00;;;;;;;2.47;0.87;;;10.80;99.90;;;;;;4211686;28;20188;-57
2024/04/04 01:06:01;;;;;;;2.57;0.70;;;10.90;99.90;;;;;;4211683;28;20278;-58
2024/04/04 01:08:02;;;;;;;1.97;0.57;;;10.90;99.90;;;;;;4214202;28;20398;-58
2024/04/04 01:10:05;;;;;;;0.93;0.60;;;10.90;99.90;;;;;;4214349;28;20203;-58
2024/04/04 01:12:06;;;;;;;1.20;0.63;;;11.00;99.90;;;;;;4214793;28;20539;-58
2024/04/04 01:14:07;;;;;;;1.67;1.00;;;11.00;99.90;;;;;;4214975;28;20181;-58
2024/04/04 01:16:07;;;;;;;1.13;0.57;;;11.00;99.90;;;;;;4214847;28;20234;-58
2024/04/04 01:18:08;;;;;;;2.13;0.70;;;11.00;99.90;;;;;;4215108;28;20630;-58
2024/04/04 01:20:09;;;;;;;1.23;0.73;;;11.00;99.90;;;;;;4214339;28;20188;-58
2024/04/04 01:22:09;;;;;;;1.73;1.00;;;11.00;99.90;;;;;;4214549;28;20184;-58
2024/04/04 01:24:10;;;;;;;2.40;0.80;;;11.00;99.90;;;;;;4215111;28;20191;-58
2024/04/04 01:26:11;;;;;;;1.47;0.70;;;11.00;99.90;;;;;;4215120;28;20283;-58
2024/04/04 01:28:12;;;;;;;1.87;0.80;;;11.00;99.90;;;;;;4215019;28;20331;-58
2024/04/04 01:30:13;;;;;;;1.00;0.60;;;11.00;99.90;;;;;;4214156;28;20216;-58
2024/04/04 01:32:14;;;;;;;2.53;1.00;;;11.10;99.90;;;;;;4214536;28;20388;-58
2024/04/04 01:34:15;;;;;;;1.90;0.67;;;11.10;99.90;;;;;;4214932;28;20219;-58
2024/04/04 01:36:16;;;;;;;2.63;0.70;;;11.10;99.90;;;;;;4213960;28;20188;-58
2024/04/04 01:38:16;;;;;;;2.60;0.80;;;11.10;99.90;;;;;;4213809;28;20494;-58
2024/04/04 01:40:17;;;;;;;1.40;0.60;;;11.10;99.90;;;;;;4214963;28;20231;-58
2024/04/04 01:42:17;;;;;;;1.20;0.73;;;11.10;99.90;;;;;;4208499;28;20184;-58
2024/04/04 01:44:18;;;;;;;1.33;0.70;;;11.10;99.90;;;;;;4214730;28;20271;-58
2024/04/04 01:46:18;;;;;;;1.53;0.60;;;11.10;99.90;;;;;;4214404;28;20540;-58
2024/04/04 01:48:19;;;;;;;1.33;0.73;;;11.20;99.90;;;;;;4213744;28;20224;-58
2024/04/04 01:50:19;;;;;;;2.03;0.70;;;11.20;99.90;;;;;;4214631;28;20275;-58
2024/04/04 01:52:20;;;;;;;1.20;0.70;;;11.20;99.90;;;;;;4214406;28;20187;-58
2024/04/04 01:54:20;;;;;;;2.17;0.87;;;11.20;99.90;;;;;;4214350;28;20180;-58
2024/04/04 01:56:21;;;;;;;2.83;1.00;;;11.30;99.90;;;;;;4214492;28;20173;-58
2024/04/04 01:58:21;;;;;;;3.40;0.73;;;11.30;99.90;;;;;;4213557;28;20616;-58
2024/04/04 02:00:22;;;;;;;0.87;0.73;;;11.30;99.90;;;;;;4213400;28;20605;-58
2024/04/04 02:02:23;;;;;;;2.00;0.80;;;11.30;99.90;;;;;;4213151;28;20185;-58
2024/04/04 02:04:23;;;;;;;1.80;0.97;;;11.40;99.90;;;;;;4213476;28;20183;-58
2024/04/04 02:06:24;;;;;;;1.90;0.80;;;11.40;99.90;;;;;;4213133;28;20225;-58
2024/04/04 02:08:24;;;;;;;1.77;0.77;;;11.40;99.90;;;;;;4212826;28;20323;-58
2024/04/04 02:10:25;;;;;;;1.27;0.67;;;11.40;99.90;;;;;;4213257;28;20208;-58
2024/04/04 02:12:25;;;;;;;2.27;0.83;;;11.40;99.90;;;;;;4213035;28;20188;-58
2024/04/04 02:14:26;;;;;;;1.97;0.70;;;11.40;99.90;;;;;;4213519;28;20180;-58
2024/04/04 02:16:27;;;;;;;1.40;0.80;;;11.40;99.90;;;;;;4213011;28;20283;-58
2024/04/04 02:18:27;;;;;;;1.47;0.70;;;11.40;99.90;;;;;;4212238;28;20180;-58
2024/04/04 02:20:28;;;;;;;0.93;0.60;;;11.30;99.90;;;;;;4213066;28;20638;-58
2024/04/04 02:22:28;;;;;;;1.27;0.93;;;11.30;99.90;;;;;;4212808;28;20189;-58
2024/04/04 02:24:29;;;;;;;3.57;0.90;;;11.30;99.90;;;;;;4211613;28;20272;-58
2024/04/04 02:26:29;;;;;;;1.90;0.70;;;11.30;99.90;;;;;;4213005;28;20185;-58
2024/04/04 02:28:30;;;;;;;2.27;0.93;;;11.30;99.90;;;;;;4212256;28;20272;-58
2024/04/04 02:30:31;;;;;;;2.33;0.80;;;11.30;99.90;;;;;;4212926;28;20203;-58
2024/04/04 02:32:31;;;;;;;3.40;0.70;;;11.30;99.90;;;;;;4212780;28;20219;-58
2024/04/04 02:34:32;;;;;;;2.43;0.83;;;11.30;99.90;;;;;;4213065;28;20180;-58
2024/04/04 02:36:33;;;;;;;1.03;0.63;;;11.30;99.90;;;;;;4212213;28;20661;-58
2024/04/04 02:38:34;;;;;;;2.10;0.80;;;11.30;99.90;;;;;;4212012;28;20643;-58
2024/04/04 02:40:34;;;;;;;2.47;1.00;;;11.30;99.90;;;;;;4212926;28;20212;-58
2024/04/04 02:42:35;;;;;;;1.87;0.90;;;11.30;99.90;;;;;;4206593;28;20176;-58
2024/04/04 02:44:36;;;;;;;1.80;1.00;;;11.20;99.90;;;;;;4212542;28;20184;-58
2024/04/04 02:46:37;;;;;;;3.87;1.13;;;11.30;99.90;;;;;;4199125;28;20184;-58
2024/04/04 02:48:38;;;;;;;2.50;1.20;;;11.30;99.90;;;;;;4212436;28;20512;-58
2024/04/04 02:50:38;;;;;;;2.30;1.00;;;11.30;99.90;;;;;;4213041;28;20246;-58
2024/04/04 02:52:39;;;;;;;2.13;1.20;;;11.30;99.90;;;;;;4207553;28;20185;-58
2024/04/04 02:54:39;;;;;;;2.73;0.90;;;11.30;99.90;;;;;;4197224;28;20269;-58
2024/04/04 02:56:40;;;;;;;2.97;1.10;;;11.30;99.90;;;;;;4202221;28;20202;-58
2024/04/04 02:58:41;;;;;;;2.30;1.10;;;11.30;99.90;;;;;;4211806;28;20603;-58
2024/04/04 03:00:41;;;;;;;2.53;1.00;;;11.30;99.90;;;;;;4176418;28;1052660;-58
2024/04/04 03:02:42;;;;;;;2.80;1.00;;;11.30;99.90;;;;;;4213300;28;20185;-58
2024/04/04 03:04:42;;;;;;;2.87;0.87;;;11.30;99.90;;;;;;4213386;28;20188;-58
2024/04/04 03:06:43;;;;;;;1.53;0.97;;;11.30;99.90;;;;;;4213325;28;20283;-58
2024/04/04 03:08:44;;;;;;;2.73;1.03;;;11.40;99.90;;;;;;4212842;28;20610;-58
2024/04/04 03:10:45;;;;;;;2.40;0.87;;;11.30;99.90;;;;;;4205145;28;20654;-58
2024/04/04 03:12:49;;;;;;;2.23;1.00;;;11.40;99.90;;;;;;4213158;28;20185;-58
2024/04/04 03:14:50;;;;;;;1.47;1.00;;;11.40;99.90;;;;;;4213140;28;20177;-58
2024/04/04 03:16:50;;;;;;;3.30;1.13;;;11.40;99.90;;;;;;4213084;28;20181;-58
2024/04/04 03:18:51;;;;;;;3.87;1.00;;;11.40;99.90;;;;;;4210929;28;20185;-58
2024/04/04 03:20:51;;;;;;;2.47;1.20;;;11.40;99.90;;;;;;4212983;28;20650;-58
2024/04/04 03:22:52;;;;;;;2.20;1.30;;;11.50;99.90;;;;;;4212837;28;20229;-58
2024/04/04 03:24:53;;;;;;;3.17;1.10;;;11.50;99.90;;;;;;4212956;28;20556;-58
2024/04/04 03:26:53;;;;;;;2.50;0.90;;;11.50;99.90;;;;;;4212794;28;20199;-58
2024/04/04 03:28:54;;;;;;;2.83;1.00;;;11.50;99.90;;;;;;4212228;28;20193;-58
2024/04/04 03:30:54;;;;;;;1.90;0.90;;;11.50;99.90;;;;;;4212090;28;20197;-58
2024/04/04 03:32:55;;;;;;;2.90;1.00;;;11.60;99.90;;;;;;4213159;28;20177;-58
2024/04/04 03:34:55;;;;;;;2.70;0.90;;;11.50;99.90;;;;;;4212383;28;20193;-59
2024/04/04 03:36:56;;;;;;;3.37;1.07;;;11.60;99.90;;;;;;4212794;28;20185;-58
2024/04/04 03:38:57;;;;;;;2.10;0.97;;;11.60;99.90;;;;;;4212202;28;20432;-58
2024/04/04 03:40:57;;;;;;;3.27;1.17;;;11.60;99.90;;;;;;4212620;28;20188;-58
2024/04/04 03:42:58;;;;;;;2.83;1.43;;;11.70;99.90;;;;;;4212727;28;20453;-58
2024/04/04 03:44:58;;;;;;;2.50;1.30;;;11.70;99.90;;;;;;4212467;28;20638;-59
2024/04/04 03:46:59;;;;;;;3.73;1.17;;;11.70;99.90;;;;;;4212537;28;20187;-58
2024/04/04 03:48:59;;;;;;;3.63;1.10;;;11.70;99.90;;;;;;4211755;28;20669;-58
2024/04/04 03:51:00;;;;;;;5.60;1.40;;;11.70;99.90;;;;;;4211480;28;20303;-58
2024/04/04 03:53:01;;;;;;;3.67;1.13;;;11.70;99.90;;;;;;4212467;28;20191;-58
2024/04/04 03:55:02;;;;;;;3.67;1.07;;;11.70;99.90;;;;;;4212782;28;20188;-58
2024/04/04 03:57:03;;;;;;;3.57;1.13;;;11.70;99.90;;;;;;4212666;28;20180;-58
2024/04/04 03:59:04;;;;;;;3.90;1.40;;;11.80;99.90;;;;;;4211539;28;20552;-58
2024/04/04 04:01:04;;;;;;;2.23;1.10;;;11.80;99.90;;;;;;4212379;28;20188;-58
2024/04/04 04:03:05;;;;;;;6.00;1.27;;;11.70;99.90;;;;;;4212463;28;20634;-58
2024/04/04 04:05:06;;;;;;;3.20;1.43;;;11.80;99.90;;;;;;4212227;28;20583;-58
2024/04/04 04:07:07;;;;;;;4.43;1.50;;;11.80;99.90;;;;;;4212398;28;20191;-58
2024/04/04 04:09:07;;;;;;;3.97;1.57;;;11.90;99.90;;;;;;4211671;28;20181;-58
2024/04/04 04:11:08;;;;;;;2.87;1.00;;;11.90;99.90;;;;;;4212100;28;20204;-58
2024/04/04 04:13:08;;;;;;;5.03;1.77;;;11.90;99.90;;;;;;4212536;28;20254;-58
2024/04/04 04:15:10;;;;;;;3.23;1.47;;;11.90;99.90;;;;;;4212608;28;20535;-58
2024/04/04 04:17:10;;;;;;;3.70;1.27;;;11.90;99.90;;;;;;4212249;28;20187;-58
2024/04/04 04:19:13;;;;;;;4.70;1.50;;;12.00;99.90;;;;;;4211645;28;20618;-58
2024/04/04 04:21:17;;;;;;;3.23;1.00;;;11.90;99.90;;;;;;4211982;28;20216;-58
2024/04/04 04:23:18;;;;;;;4.00;1.37;;;12.00;99.90;;;;;;4212564;28;20638;-58
2024/04/04 04:25:18;;;;;;;5.03;1.40;;;11.90;99.90;;;;;;4211825;28;20188;-58
2024/04/04 04:27:19;;;;;;;5.07;1.57;;;11.90;99.90;;;;;;4212145;28;20538;-58
2024/04/04 04:29:20;;;;;;;3.83;1.33;;;12.00;99.90;;;;;;4211657;28;20184;-58
2024/04/04 04:31:32;;;;;;;5.37;1.27;;;11.90;99.90;;;;;;4212234;28;20542;-58
2024/04/04 04:33:33;;;;;;;4.37;1.53;;;11.90;99.90;;;;;;4199384;28;20192;-58
2024/04/04 04:35:33;;;;;;;5.13;1.47;;;12.00;99.90;;;;;;4211624;28;20181;-58
2024/04/04 04:37:34;;;;;;;4.50;1.37;;;12.00;99.90;;;;;;4212089;28;20204;-58
2024/04/04 04:39:35;;;;;;;3.57;1.30;;;12.00;99.90;;;;;;4211195;28;20216;-58
2024/04/04 04:41:35;;;;;;;3.30;1.20;;;12.10;99.90;;;;;;4211737;28;20207;-58
2024/04/04 04:43:37;;;;;;;3.67;1.30;;;12.10;99.90;;;;;;4211910;28;20195;-58
2024/04/04 04:45:37;;;;;;;2.50;1.27;;;12.10;99.90;;;;;;4212102;28;20271;-58
2024/04/04 04:47:38;;;;;;;5.50;1.50;;;12.10;99.90;;;;;;4211771;28;20181;-59
2024/04/04 04:49:38;;;;;;;4.93;1.30;;;12.10;99.90;;;;;;4210833;28;20208;-58
2024/04/04 04:51:39;;;;;;;5.73;1.40;;;12.10;99.90;;;;;;4211721;28;20181;-59
2024/04/04 04:53:41;;;;;;;5.23;1.73;;;12.20;99.90;;;;;;4211894;28;20623;-58
2024/04/04 04:55:41;;;;;;;4.53;1.40;;;12.10;99.90;;;;;;4211914;28;20513;-58
2024/04/04 04:57:42;;;;;;;5.00;1.40;;;12.20;99.90;;;;;;4211677;28;20241;-58
2024/04/04 04:59:43;;;;;;;3.87;1.53;;;12.10;99.90;;;;;;4210961;28;20205;-59
2024/04/04 05:01:43;;;;;;;4.47;1.30;;;12.10;99.90;;;;;;4211551;28;20207;-58
2024/04/04 05:03:44;;;;;;;3.77;1.43;;;12.10;99.90;;;;;;4211990;28;20630;-58
2024/04/04 05:05:45;;;;;;;4.20;1.43;;;12.00;99.90;;;;;;4211639;28;20185;-58
2024/04/04 05:07:45;;;;;;;3.47;1.60;;;12.00;99.90;;;;;;4211779;28;20189;-58
2024/04/04 05:09:47;;;;;;;5.10;1.73;;;12.10;99.90;;;;;;4211013;28;20249;-59
2024/04/04 05:11:48;;;;;;;3.80;1.50;;;12.00;99.90;;;;;;4211604;28;20177;-58
2024/04/04 05:13:48;;;;;;;3.67;1.60;;;12.10;99.90;;;;;;4211635;28;20188;-58
2024/04/04 05:15:54;;;;;;;4.17;1.50;;;12.10;99.90;;;;;;4211874;28;20186;-58
2024/04/04 05:17:55;;;;;;;4.80;1.67;;;12.00;99.90;;;;;;4210990;28;20169;-58
2024/04/04 05:19:55;;;;;;;3.23;1.33;;;12.00;99.90;;;;;;4211911;28;20271;-58
2024/04/04 05:21:56;;;;;;;5.17;1.77;;;12.00;99.90;;;;;;4211361;28;20188;-58
2024/04/04 05:23:56;;;;;;;5.20;1.80;;;12.00;99.90;;;;;;4211606;28;20283;-58
2024/04/04 05:25:57;;;;;;;3.57;1.53;;;11.90;99.90;;;;;;4211960;28;20180;-58
2024/04/04 05:27:57;;;;;;;3.90;1.37;;;11.90;99.90;;;;;;4210538;28;20638;-58
2024/04/04 05:30:10;;;;;;;3.17;1.10;;;11.90;99.90;;;;;;4211823;28;20273;-58
2024/04/04 05:32:11;;;;;;;5.07;1.63;;;11.90;99.90;;;;;;4211558;28;20176;-57
2024/04/04 05:34:12;;;;;;;4.53;1.30;;;12.00;99.90;;;;;;4211776;28;20176;-58
2024/04/04 05:36:12;;;;;;;3.97;1.50;;;11.90;99.90;;;;;;4211030;28;20570;-58
2024/04/04 05:38:14;;;;;;;3.27;1.30;;;11.90;99.90;;;;;;4210669;28;20479;-58
2024/04/04 05:40:14;;;;;;;3.50;1.40;;;11.90;99.90;;;;;;4211886;28;20216;-58
2024/04/04 05:42:15;;;;;;;4.47;1.50;;;11.90;99.90;;;;;;4211286;28;20184;-58
2024/04/04 05:44:16;;;;;;;4.50;1.40;;;11.90;99.90;;;;;;4211677;28;20181;-58
2024/04/04 05:46:16;;;;;;;4.43;1.57;;;11.90;99.90;;;;;;4211393;28;20546;-58
2024/04/04 05:48:17;;;;;;;2.90;1.00;;;11.90;99.90;;;;;;4210741;28;20224;-57
2024/04/04 05:50:17;;;;;;;3.63;1.37;;;11.90;99.90;;;;;;4211342;28;20246;-57
2024/04/04 05:52:18;;;;;;;4.63;1.43;;;11.90;99.90;;;;;;4211479;28;20628;-58
2024/04/04 05:54:19;;;;;;;3.30;1.57;;;11.90;99.90;;;;;;4214258;28;20181;-58
2024/04/04 05:56:19;;;;;;;2.30;1.20;;;11.90;99.90;;;;;;4214674;28;20654;-58
2024/04/04 05:58:20;;;;;;;4.43;1.50;;;11.90;99.90;;;;;;4213876;28;20169;-58
2024/04/04 06:00:20;;;;;;;3.93;1.30;;;11.90;99.90;;;;;;4214573;28;20192;-58
2024/04/04 06:02:21;;;;;;;3.57;1.47;;;11.90;99.90;;;;;;4212981;28;20180;-58
2024/04/04 06:04:21;;;;;;;3.33;1.30;;;11.90;99.90;;;;;;4214463;28;20188;-58
2024/04/04 06:06:22;;;;;;;2.30;1.10;;;11.90;99.90;;;;;;4214423;28;20185;-57
2024/04/04 06:08:22;;;;;;;2.30;1.10;;;11.90;99.90;;;;;;4213616;28;20226;-58
2024/04/04 06:10:23;;;;;;;2.00;1.10;;;11.90;99.90;;;;;;4207053;28;20212;-58
2024/04/04 06:12:24;;;;;;;1.80;0.80;;;11.90;99.90;;;;;;4212774;28;20211;-58
2024/04/04 06:14:24;;;;;;;2.07;0.97;;;11.90;99.90;;;;;;4214352;28;20172;-57
2024/04/04 06:16:25;;;;;;;1.90;0.83;;;11.90;99.90;;;;;;4214018;28;20185;-58
2024/04/04 06:18:25;;;;;;;1.97;0.83;;;11.80;99.90;;;;;;4213375;28;20211;-57
2024/04/04 06:20:26;;;;;;;1.90;0.90;;;11.80;99.90;;;;;;4214504;28;20553;-58
2024/04/04 06:22:26;;;;;;;3.90;1.27;;;11.90;99.90;;;;;;4213984;28;20188;-57
2024/04/04 06:24:27;;;;;;;2.53;1.20;;;11.90;99.90;;;;;;4213951;28;20245;-58
2024/04/04 06:26:28;;;;;;;1.67;1.13;;;11.90;99.90;;;;;;4214116;28;20185;-57
2024/04/04 06:28:29;;;;;;;3.10;1.40;;;11.90;99.90;;;;;;4213184;28;20192;-57
2024/04/04 06:30:29;;;;;;;3.57;1.60;;;11.90;99.90;;;;;;4214036;28;20200;-57
2024/04/04 06:32:30;;;;;;;3.17;1.70;;;11.90;99.90;;;;;;4213724;28;20173;-57
2024/04/04 06:34:31;;;;;;;3.07;1.40;;;11.90;99.90;;;;;;4214212;28;20180;-57
2024/04/04 06:36:32;;;;;;;3.03;1.67;;;11.90;99.90;;;;;;4213123;28;20181;-57
2024/04/04 06:38:32;;;;;;;4.07;1.60;;;11.90;99.90;;;;;;4213416;28;20572;-59
2024/04/04 06:40:40;;;;;;;3.03;1.30;;;11.90;99.90;;;;;;4213905;28;20185;-58
2024/04/04 06:42:41;;;;;;;3.77;1.43;;;11.80;99.90;;;;;;4208735;28;20309;-58
2024/04/04 06:44:41;;;;;;;2.50;1.50;;;11.90;99.90;;;;;;4213913;28;20643;-58
2024/04/04 06:46:42;;;;;;;2.30;1.47;;;12.00;99.90;;;;;;4213556;28;20596;-58
2024/04/04 06:48:42;;;;;;;3.30;1.50;;;12.00;99.90;;;;;;4212890;28;20717;-58
2024/04/04 06:50:43;;;;;;;2.10;1.03;;;12.00;99.90;;;;;;4210157;28;20561;-58
2024/04/04 06:52:44;;;;;;;1.90;1.10;;;12.00;99.90;;;;;;4213047;28;20192;-59
2024/04/04 06:54:44;;;;;;;2.07;1.20;;;12.00;99.90;;;;;;4212905;28;20634;-58
2024/04/04 06:56:45;;;;;;;3.60;1.23;;;12.10;99.90;;;;;;4213223;28;20523;-58
2024/04/04 06:58:45;;;;;;;1.77;1.10;;;12.10;99.90;;;;;;4213017;28;20180;-59
2024/04/04 07:00:55;;;;;;;2.67;1.20;;;12.00;99.90;;;;;;4213373;28;20280;-59
2024/04/04 07:02:56;;;;;;;2.40;1.10;;;12.10;99.90;;;;;;4213723;28;20552;-58
2024/04/04 07:04:56;;;;;;;1.73;0.97;;;12.10;99.90;;;;;;4212404;28;20200;-58
2024/04/04 07:06:57;;;;;;;2.53;1.10;;;12.00;99.90;;;;;;4213275;28;20185;-58
2024/04/04 07:08:57;;;;;;;1.20;0.77;;;12.00;99.90;;;;;;4212395;28;20292;-58
2024/04/04 07:10:59;;;;;;;2.03;0.60;;;12.10;99.90;;;;;;4205424;28;20650;-58
2024/04/04 07:13:00;;;;;;;1.50;0.70;;;12.10;99.90;;;;;;4213061;28;20226;-58
2024/04/04 07:15:00;;;;;;;1.60;0.80;;;12.00;99.90;;;;;;4211950;28;20176;-59
2024/04/04 07:17:01;;;;;;;1.83;0.70;;;12.10;99.90;;;;;;4212942;28;20422;-59
2024/04/04 07:19:01;;;;;;;2.37;0.60;;;12.10;99.90;;;;;;4203053;28;20185;-59
2024/04/04 07:21:02;;;;;;;2.03;0.80;;;12.10;99.90;;;;;;4213219;28;20531;-59
2024/04/04 07:23:03;;;;;;;1.30;0.70;;;12.10;99.90;;;;;;4213269;28;20177;-58
2024/04/04 07:25:04;;;;;;;3.23;0.70;;;12.10;99.90;;;;;;4210902;28;20207;-59
2024/04/04 07:27:06;;;;;;;1.70;0.70;;;12.10;99.90;;;;;;4213147;28;20188;-59
2024/04/04 07:29:06;;;;;;;1.10;0.60;;;12.10;99.90;;;;;;4212324;28;20668;-59
2024/04/04 07:31:07;;;;;;;1.23;0.57;;;12.10;99.90;;;;;;4212882;28;20236;-59
2024/04/04 07:33:07;;;;;;;1.93;0.60;;;12.10;99.90;;;;;;4212977;28;20655;-59
2024/04/04 07:35:08;;;;;;;0.50;0.37;;;12.10;99.90;;;;;;4212333;28;20760;-59
2024/04/04 07:37:08;;;;;;;1.87;0.47;;;12.10;99.90;;;;;;4212600;28;20177;-59
2024/04/04 07:39:09;;;;;;;1.30;0.57;;;12.10;99.90;;;;;;4212187;28;20181;-59
2024/04/04 07:41:12;;;;;;;2.00;0.50;;;12.10;99.90;;;;;;4208176;28;20216;-58
2024/04/04 07:43:12;;;;;;;0.97;0.40;;;12.10;99.90;;;;;;4211285;28;20759;-59
2024/04/04 07:45:13;;;;;;;1.10;0.50;;;12.00;99.90;;;;;;4212932;28;20235;-59
2024/04/04 07:47:13;;;;;;;1.03;0.40;;;11.90;99.90;;;;;;4212764;28;20211;-59
2024/04/04 07:49:14;;;;;;;0.93;0.37;;;12.00;99.90;;;;;;4212030;28;20662;-58
2024/04/04 07:51:16;;;;;;;1.97;0.50;;;11.90;99.90;;;;;;4212209;28;20204;-58
2024/04/04 07:53:16;;;;;;;0.80;0.40;;;11.80;99.90;;;;;;4212702;28;20291;-58
2024/04/04 07:55:17;;;;;;;0.40;0.20;;;11.80;99.90;;;;;;4208698;28;20188;-58
2024/04/04 07:57:18;;;;;;;0.40;0.20;;;11.80;99.90;;;;;;4207627;28;20188;-58
2024/04/04 07:59:19;;;;;;;1.90;0.33;;;11.70;99.90;;;;;;4196992;28;20505;-59
2024/04/04 08:01:20;;;;;;;0.63;0.20;;;11.70;99.90;;;;;;4208460;28;20259;-59
2024/04/04 08:03:21;;;;;;;0.60;0.40;;;11.70;99.90;;;;;;4206922;28;20179;-59
2024/04/04 08:05:22;;;;;;;1.37;0.20;;;11.70;99.90;;;;;;4206632;28;20233;-59
2024/04/04 08:07:22;;;;;;;0.40;0.40;;;11.80;99.90;;;;;;4208221;28;20218;-58
2024/04/04 08:09:23;;;;;;;0.70;0.40;;;11.80;99.90;;;;;;4205315;28;20568;-59
2024/04/04 08:11:24;;;;;;;0.50;0.30;;;11.80;99.90;;;;;;4206737;28;20208;-59
2024/04/04 08:13:24;;;;;;;1.20;0.40;;;11.80;99.90;;;;;;4201228;28;20181;-59
2024/04/04 08:15:25;;;;;;;0.93;0.53;;;11.90;99.90;;;;;;4206774;28;20189;-58
2024/04/04 08:17:26;;;;;;;0.63;0.40;;;11.90;99.90;;;;;;4205774;28;20180;-59
2024/04/04 08:19:27;;;;;;;0.93;0.57;;;12.00;99.90;;;;;;4208057;28;20181;-59
2024/04/04 08:21:27;;;;;;;0.30;0.30;;;12.00;99.90;;;;;;4208247;28;20346;-59
2024/04/04 08:23:30;;;;;;;1.83;0.60;;;12.10;99.90;;;;;;4207834;28;20185;-59
2024/04/04 08:25:31;;;;;;;0.97;0.57;;;12.10;99.90;;;;;;4206761;28;20181;-59
2024/04/04 08:27:32;;;;;;;0.80;0.60;;;12.10;99.90;;;;;;4208262;28;20292;-59
2024/04/04 08:29:32;;;;;;;0.73;0.47;;;12.10;99.90;;;;;;4205714;28;20177;-59
2024/04/04 08:31:34;;;;;;;0.97;0.67;;;12.20;99.90;;;;;;4206196;28;20233;-59
2024/04/04 08:33:35;;;;;;;1.27;0.57;;;12.20;99.90;;;;;;4205280;28;20202;-58
2024/04/04 08:35:36;;;;;;;2.47;0.63;;;12.20;99.90;;;;;;4207960;28;20586;-58
2024/04/04 08:37:36;;;;;;;1.20;0.50;;;12.20;99.90;;;;;;4204409;28;20532;-59
2024/04/04 08:39:38;;;;;;;2.17;0.50;;;12.20;99.90;;;;;;4204588;28;20345;-59
2024/04/04 08:41:40;;;;;;;1.17;0.67;;;12.30;99.90;;;;;;4205911;28;20676;-58
2024/04/04 08:43:41;;;;;;;1.33;0.63;;;12.20;99.90;;;;;;4207613;28;20245;-60
2024/04/04 08:45:49;;;;;;;1.03;0.40;;;12.20;99.90;;;;;;4203346;28;20204;-59
2024/04/04 08:47:50;;;;;;;1.70;0.63;;;12.30;99.90;;;;;;4205758;28;20919;-59
2024/04/04 08:49:52;;;;;;;0.83;0.50;;;12.20;99.90;;;;;;4207270;28;20196;-58
2024/04/04 08:51:53;;;;;;;1.10;0.40;;;12.20;99.90;;;;;;4201301;28;20180;-60
2024/04/04 08:53:54;;;;;;;1.33;0.50;;;12.20;99.90;;;;;;4206228;28;20188;-58
2024/04/04 08:55:55;;;;;;;1.00;0.50;;;12.30;99.90;;;;;;4205551;28;20168;-59
2024/04/04 08:57:56;;;;;;;0.53;0.30;;;12.30;99.90;;;;;;4202240;28;20176;-59
2024/04/04 08:59:57;;;;;;;0.50;0.40;;;12.40;99.90;;;;;;4207678;28;20192;-59
2024/04/04 09:01:58;;;;;;;0.77;0.47;;;12.40;99.90;;;;;;4205082;28;20271;-59
2024/04/04 09:03:59;;;;;;;1.10;0.60;;;12.40;99.90;;;;;;4207834;28;20275;-59
2024/04/04 09:06:01;;;;;;;0.30;0.30;;;12.40;99.90;;;;;;4205170;28;20576;-59
2024/04/04 09:08:02;;;;;;;0.50;0.40;;;12.40;99.90;;;;;;4207035;28;20192;-59
2024/04/04 09:10:04;;;;;;;1.03;0.40;;;12.40;99.90;;;;;;4205738;28;20231;-59
2024/04/04 09:12:11;;;;;;;0.80;0.37;;;12.50;99.90;;;;;;4208472;28;20264;-58
2024/04/04 09:14:11;;;;;;;0.93;0.30;;;12.50;99.90;;;;;;4210404;28;20591;-58
2024/04/04 09:16:20;;;;;;;0.70;0.40;;;12.50;99.90;;;;;;4207476;28;20267;-58
2024/04/04 09:18:24;;;;;;;0.40;0.30;;;12.50;99.90;;;;;;4205953;28;20183;-59
2024/04/04 09:20:24;;;;;;;0.30;0.30;;;12.60;99.90;;;;;;4205913;28;20177;-59
2024/04/04 09:22:25;;;;;;;0.70;0.40;;;12.60;99.90;;;;;;4205124;28;20215;-58
2024/04/04 09:24:26;;;;;;;0.57;0.40;;;12.60;99.90;;;;;;4208120;28;20578;-58
2024/04/04 09:26:26;;;;;;;0.43;0.33;;;12.60;99.90;;;;;;4204104;28;20245;-58
2024/04/04 09:28:28;;;;;;;0.97;0.40;;;12.60;99.90;;;;;;4207561;28;20184;-58
2024/04/04 09:30:29;;;;;;;0.87;0.30;;;12.70;99.90;;;;;;4207779;28;20253;-59
2024/04/04 09:32:30;;;;;;;1.70;0.50;;;12.80;99.90;;;;;;4209435;28;20185;-58
2024/04/04 09:34:32;;;;;;;1.70;0.40;;;12.80;99.90;;;;;;4205801;28;20184;-59
2024/04/04 09:36:36;;;;;;;0.83;0.50;;;12.90;99.90;;;;;;4208085;28;20179;-59
2024/04/04 09:38:36;;;;;;;1.40;0.40;;;12.90;99.90;;;;;;4210754;28;20188;-58
2024/04/04 09:40:38;;;;;;;1.50;0.60;;;12.80;99.90;;;;;;4211245;28;20219;-58
2024/04/04 09:42:41;;;;;;;1.87;0.57;;;12.80;99.90;;;;;;4210668;28;20548;-58
2024/04/04 09:44:42;;;;;;;1.57;0.60;;;12.80;99.90;;;;;;4209094;28;20267;-61
2024/04/04 09:46:43;;;;;;;2.00;0.40;;;12.80;99.90;;;;;;4210715;28;20618;-60
2024/04/04 09:48:45;;;;;;;1.77;0.77;;;12.80;99.90;;;;;;4207611;28;20180;-58
2024/04/04 09:50:45;;;;;;;1.27;0.50;;;12.90;99.90;;;;;;4210879;28;20261;-58
2024/04/04 09:52:48;;;;;;;2.07;0.50;;;12.90;99.90;;;;;;4207812;28;20538;-60
2024/04/04 09:54:49;;;;;;;2.47;0.70;;;13.00;99.90;;;;;;4210326;28;20215;-57
2024/04/04 09:56:50;;;;;;;1.13;0.60;;;13.00;99.90;;;;;;4207304;28;20630;-57
2024/04/04 09:58:52;;;;;;;1.92;0.65;;;13.00;99.90;;;;;;4210874;28;20961;-59
2024/04/04 10:00:52;;;;;;;2.65;0.80;;;13.00;99.90;;;;;;4209984;28;20409;-61
2024/04/04 10:02:55;;;;;;;1.23;0.47;;;13.00;99.90;;;;;;4209370;28;20221;-58
2024/04/04 10:04:55;;;;;;;1.23;0.53;;;13.00;99.90;;;;;;4206705;28;20177;-60
2024/04/04 10:06:56;;;;;;;1.97;0.80;;;13.00;99.90;;;;;;4210983;28;20180;-59
2024/04/04 10:08:58;;;;;;;1.07;0.43;;;13.00;99.90;;;;;;4208724;28;20940;-61
2024/04/04 10:11:04;;;;;;;2.73;0.90;;;13.00;99.90;;;;;;4209936;28;20215;-58
2024/04/04 10:13:07;;;;;;;1.47;0.60;;;13.00;99.90;;;;;;4211126;28;20817;-58
2024/04/04 10:15:15;;;;;;;1.77;0.80;;;13.00;99.90;;;;;;4208367;28;20630;-57
2024/04/04 10:17:15;;;;;;;2.10;0.63;;;13.00;99.90;;;;;;4208974;28;20264;-55
2024/04/04 10:19:18;;;;;;;1.17;0.60;;;13.20;99.90;;;;;;4206245;28;20177;-56
2024/04/04 10:21:24;;;;;;;1.23;0.67;;;13.30;99.90;;;;;;4209761;28;20197;-56
2024/04/04 10:23:25;;;;;;;0.67;0.50;;;13.40;99.90;;;;;;4207979;28;20239;-56
2024/04/04 10:25:26;;;;;;;1.13;0.53;;;13.40;99.90;;;;;;4208048;28;20204;-56
2024/04/04 10:27:27;;;;;;;1.90;0.70;;;13.40;99.90;;;;;;4208436;28;20736;-56
2024/04/04 10:29:30;;;;;;;2.80;0.90;;;13.30;99.90;;;;;;4208344;28;20212;-56
2024/04/04 10:31:31;;;;;;;2.23;0.83;;;13.30;99.90;;;;;;4210037;28;20189;-56